sensor_id;sensor_type;location;lat;lon;timestamp;temperature;humidity
9373;DHT22;10838;52.350;9.790;2023-04-25T00:02:19;9.00;97.30
9373;DHT22;10838;52.350;9.790;2023-04-25T00:04:46;9.00;97.30
9373;DHT22;10838;52.350;9.790;2023-04-25T00:07:15;9.00;97.30
9373;DHT22;10838;52.350;9.790;2023-04-25T00:09:42;9.00;97.30
9373;DHT22;10838;52.350;9.790;2023-04-25T00:12:08;9.00;97.30
9373;DHT22;10838;52.350;9.790;2023-04-25T00:14:35;8.90;97.30
9373;DHT22;10838;52.350;9.790;2023-04-25T00:17:02;8.90;97.30
9373;DHT22;10838;52.350;9.790;2023-04-25T00:19:29;8.90;97.30
9373;DHT22;10838;52.350;9.790;2023-04-25T00:21:56;8.90;97.30
9373;DHT22;10838;52.350;9.790;2023-04-25T00:24:24;8.90;97.30
9373;DHT22;10838;52.350;9.790;2023-04-25T00:26:50;8.90;97.20
9373;DHT22;10838;52.350;9.790;2023-04-25T00:29:17;8.90;97.20
9373;DHT22;10838;52.350;9.790;2023-04-25T00:31:43;8.90;97.20
9373;DHT22;10838;52.350;9.790;2023-04-25T00:34:10;8.90;97.20
9373;DHT22;10838;52.350;9.790;2023-04-25T00:36:36;8.90;97.20
9373;DHT22;10838;52.350;9.790;2023-04-25T00:39:03;8.90;97.30
9373;DHT22;10838;52.350;9.790;2023-04-25T00:41:32;8.90;97.20
9373;DHT22;10838;52.350;9.790;2023-04-25T00:43:59;8.90;97.20
9373;DHT22;10838;52.350;9.790;2023-04-25T00:46:27;8.90;97.30
9373;DHT22;10838;52.350;9.790;2023-04-25T00:48:53;8.90;97.20
9373;DHT22;10838;52.350;9.790;2023-04-25T00:51:21;8.90;97.20
9373;DHT22;10838;52.350;9.790;2023-04-25T00:53:49;8.90;97.20
9373;DHT22;10838;52.350;9.790;2023-04-25T00:56:16;8.90;97.20
9373;DHT22;10838;52.350;9.790;2023-04-25T00:58:44;8.80;97.20
9373;DHT22;10838;52.350;9.790;2023-04-25T01:01:11;8.90;97.20
9373;DHT22;10838;52.350;9.790;2023-04-25T01:03:39;8.80;97.10
9373;DHT22;10838;52.350;9.790;2023-04-25T01:06:07;8.80;97.10
9373;DHT22;10838;52.350;9.790;2023-04-25T01:08:34;8.80;97.10
9373;DHT22;10838;52.350;9.790;2023-04-25T01:11:00;8.80;97.10
9373;DHT22;10838;52.350;9.790;2023-04-25T01:13:27;8.80;97.20
9373;DHT22;10838;52.350;9.790;2023-04-25T01:15:56;8.80;97.20
9373;DHT22;10838;52.350;9.790;2023-04-25T01:18:22;8.80;97.20
9373;DHT22;10838;52.350;9.790;2023-04-25T01:20:50;8.80;97.20
9373;DHT22;10838;52.350;9.790;2023-04-25T01:23:19;8.80;97.20
9373;DHT22;10838;52.350;9.790;2023-04-25T01:25:47;8.80;97.20
9373;DHT22;10838;52.350;9.790;2023-04-25T01:28:14;8.80;97.20
9373;DHT22;10838;52.350;9.790;2023-04-25T01:30:41;8.80;97.20
9373;DHT22;10838;52.350;9.790;2023-04-25T01:33:08;8.80;97.20
9373;DHT22;10838;52.350;9.790;2023-04-25T01:35:34;8.80;97.20
9373;DHT22;10838;52.350;9.790;2023-04-25T01:38:01;8.80;97.20
9373;DHT22;10838;52.350;9.790;2023-04-25T01:40:29;8.70;97.20
9373;DHT22;10838;52.350;9.790;2023-04-25T01:42:56;8.80;97.20
9373;DHT22;10838;52.350;9.790;2023-04-25T01:45:23;8.70;97.20
9373;DHT22;10838;52.350;9.790;2023-04-25T01:47:49;8.70;97.20
9373;DHT22;10838;52.350;9.790;2023-04-25T01:50:17;8.70;97.20
9373;DHT22;10838;52.350;9.790;2023-04-25T01:52:44;8.70;97.30
9373;DHT22;10838;52.350;9.790;2023-04-25T01:55:11;8.80;97.30
9373;DHT22;10838;52.350;9.790;2023-04-25T01:57:39;8.70;97.30
9373;DHT22;10838;52.350;9.790;2023-04-25T02:00:06;8.70;97.30
9373;DHT22;10838;52.350;9.790;2023-04-25T02:02:34;8.70;97.30
9373;DHT22;10838;52.350;9.790;2023-04-25T02:05:00;8.70;97.30
9373;DHT22;10838;52.350;9.790;2023-04-25T02:07:27;8.70;97.30
9373;DHT22;10838;52.350;9.790;2023-04-25T02:09:54;8.70;97.30
9373;DHT22;10838;52.350;9.790;2023-04-25T02:12:20;8.70;97.30
9373;DHT22;10838;52.350;9.790;2023-04-25T02:14:48;8.70;97.30
9373;DHT22;10838;52.350;9.790;2023-04-25T02:17:15;8.70;97.40
9373;DHT22;10838;52.350;9.790;2023-04-25T02:19:42;8.70;97.40
9373;DHT22;10838;52.350;9.790;2023-04-25T02:22:09;8.70;97.40
9373;DHT22;10838;52.350;9.790;2023-04-25T02:24:35;8.70;97.50
9373;DHT22;10838;52.350;9.790;2023-04-25T02:27:02;8.70;97.50
9373;DHT22;10838;52.350;9.790;2023-04-25T02:29:29;8.70;97.60
9373;DHT22;10838;52.350;9.790;2023-04-25T02:31:57;8.70;97.60
9373;DHT22;10838;52.350;9.790;2023-04-25T02:34:24;8.60;97.60
9373;DHT22;10838;52.350;9.790;2023-04-25T02:36:50;8.60;97.60
9373;DHT22;10838;52.350;9.790;2023-04-25T02:39:17;8.50;97.60
9373;DHT22;10838;52.350;9.790;2023-04-25T02:41:44;8.50;97.60
9373;DHT22;10838;52.350;9.790;2023-04-25T02:44:10;8.50;97.60
9373;DHT22;10838;52.350;9.790;2023-04-25T02:46:37;8.50;97.60
9373;DHT22;10838;52.350;9.790;2023-04-25T02:49:05;8.50;97.60
9373;DHT22;10838;52.350;9.790;2023-04-25T02:51:31;8.40;97.50
9373;DHT22;10838;52.350;9.790;2023-04-25T02:53:58;8.40;97.50
9373;DHT22;10838;52.350;9.790;2023-04-25T02:56:25;8.40;97.40
9373;DHT22;10838;52.350;9.790;2023-04-25T02:58:52;8.40;97.40
9373;DHT22;10838;52.350;9.790;2023-04-25T03:01:19;8.40;97.30
9373;DHT22;10838;52.350;9.790;2023-04-25T03:03:45;8.40;97.30
9373;DHT22;10838;52.350;9.790;2023-04-25T03:06:13;8.40;97.30
9373;DHT22;10838;52.350;9.790;2023-04-25T03:08:40;8.40;97.30
9373;DHT22;10838;52.350;9.790;2023-04-25T03:11:06;8.40;97.30
9373;DHT22;10838;52.350;9.790;2023-04-25T03:13:33;8.40;97.30
9373;DHT22;10838;52.350;9.790;2023-04-25T03:15:59;8.40;97.30
9373;DHT22;10838;52.350;9.790;2023-04-25T03:18:26;8.40;97.30
9373;DHT22;10838;52.350;9.790;2023-04-25T03:20:53;8.40;97.30
9373;DHT22;10838;52.350;9.790;2023-04-25T03:23:20;8.40;97.30
9373;DHT22;10838;52.350;9.790;2023-04-25T03:25:47;8.30;97.20
9373;DHT22;10838;52.350;9.790;2023-04-25T03:28:14;8.30;97.20
9373;DHT22;10838;52.350;9.790;2023-04-25T03:30:40;8.30;97.20
9373;DHT22;10838;52.350;9.790;2023-04-25T03:33:07;8.30;97.20
9373;DHT22;10838;52.350;9.790;2023-04-25T03:35:34;8.30;97.20
9373;DHT22;10838;52.350;9.790;2023-04-25T03:38:00;8.30;97.20
9373;DHT22;10838;52.350;9.790;2023-04-25T03:40:28;8.30;97.20
9373;DHT22;10838;52.350;9.790;2023-04-25T03:42:54;8.30;97.20
9373;DHT22;10838;52.350;9.790;2023-04-25T03:45:21;8.30;97.30
9373;DHT22;10838;52.350;9.790;2023-04-25T03:47:48;8.30;97.30
9373;DHT22;10838;52.350;9.790;2023-04-25T03:50:15;8.30;97.30
9373;DHT22;10838;52.350;9.790;2023-04-25T03:52:43;8.30;97.30
9373;DHT22;10838;52.350;9.790;2023-04-25T03:55:09;8.40;97.30
9373;DHT22;10838;52.350;9.790;2023-04-25T03:57:37;8.40;97.30
9373;DHT22;10838;52.350;9.790;2023-04-25T04:00:05;8.40;97.30
9373;DHT22;10838;52.350;9.790;2023-04-25T04:02:32;8.40;97.40
9373;DHT22;10838;52.350;9.790;2023-04-25T04:05:00;8.30;97.30
9373;DHT22;10838;52.350;9.790;2023-04-25T04:07:26;8.30;97.40
9373;DHT22;10838;52.350;9.790;2023-04-25T04:09:53;8.30;97.40
9373;DHT22;10838;52.350;9.790;2023-04-25T04:12:19;8.30;97.40
9373;DHT22;10838;52.350;9.790;2023-04-25T04:14:47;8.30;97.40
9373;DHT22;10838;52.350;9.790;2023-04-25T04:17:14;8.30;97.40
9373;DHT22;10838;52.350;9.790;2023-04-25T04:19:41;8.30;97.40
9373;DHT22;10838;52.350;9.790;2023-04-25T04:22:07;8.20;97.30
9373;DHT22;10838;52.350;9.790;2023-04-25T04:24:34;8.20;97.30
9373;DHT22;10838;52.350;9.790;2023-04-25T04:27:00;8.20;97.30
9373;DHT22;10838;52.350;9.790;2023-04-25T04:29:28;8.20;97.30
9373;DHT22;10838;52.350;9.790;2023-04-25T04:31:56;8.20;97.20
9373;DHT22;10838;52.350;9.790;2023-04-25T04:34:23;8.20;97.20
9373;DHT22;10838;52.350;9.790;2023-04-25T04:36:51;8.20;97.20
9373;DHT22;10838;52.350;9.790;2023-04-25T04:39:17;8.20;97.20
9373;DHT22;10838;52.350;9.790;2023-04-25T04:41:44;8.20;97.10
9373;DHT22;10838;52.350;9.790;2023-04-25T04:44:10;8.20;97.10
9373;DHT22;10838;52.350;9.790;2023-04-25T04:46:37;8.20;97.10
9373;DHT22;10838;52.350;9.790;2023-04-25T04:49:08;8.20;97.10
9373;DHT22;10838;52.350;9.790;2023-04-25T04:51:35;8.20;97.10
9373;DHT22;10838;52.350;9.790;2023-04-25T04:54:02;8.20;97.10
9373;DHT22;10838;52.350;9.790;2023-04-25T04:56:29;8.20;97.20
9373;DHT22;10838;52.350;9.790;2023-04-25T04:58:57;8.20;97.10
9373;DHT22;10838;52.350;9.790;2023-04-25T05:01:24;8.20;97.10
9373;DHT22;10838;52.350;9.790;2023-04-25T05:03:51;8.20;97.10
9373;DHT22;10838;52.350;9.790;2023-04-25T05:06:19;8.20;97.10
9373;DHT22;10838;52.350;9.790;2023-04-25T05:08:46;8.20;97.10
9373;DHT22;10838;52.350;9.790;2023-04-25T05:11:12;8.20;97.10
9373;DHT22;10838;52.350;9.790;2023-04-25T05:13:39;8.20;97.10
9373;DHT22;10838;52.350;9.790;2023-04-25T05:16:06;8.30;97.00
9373;DHT22;10838;52.350;9.790;2023-04-25T05:18:32;8.30;97.00
9373;DHT22;10838;52.350;9.790;2023-04-25T05:20:59;8.30;97.00
9373;DHT22;10838;52.350;9.790;2023-04-25T05:23:26;8.30;97.10
9373;DHT22;10838;52.350;9.790;2023-04-25T05:25:55;8.30;97.00
9373;DHT22;10838;52.350;9.790;2023-04-25T05:28:22;8.30;97.00
9373;DHT22;10838;52.350;9.790;2023-04-25T05:30:49;8.30;97.00
9373;DHT22;10838;52.350;9.790;2023-04-25T05:33:15;8.30;97.00
9373;DHT22;10838;52.350;9.790;2023-04-25T05:35:42;8.30;96.90
9373;DHT22;10838;52.350;9.790;2023-04-25T05:38:09;8.40;96.90
9373;DHT22;10838;52.350;9.790;2023-04-25T05:40:37;8.40;96.90
9373;DHT22;10838;52.350;9.790;2023-04-25T05:43:03;8.40;96.90
9373;DHT22;10838;52.350;9.790;2023-04-25T05:45:30;8.40;96.90
9373;DHT22;10838;52.350;9.790;2023-04-25T05:47:56;8.50;96.80
9373;DHT22;10838;52.350;9.790;2023-04-25T05:50:23;8.40;96.80
9373;DHT22;10838;52.350;9.790;2023-04-25T05:52:50;8.40;96.70
9373;DHT22;10838;52.350;9.790;2023-04-25T05:55:17;8.50;96.70
9373;DHT22;10838;52.350;9.790;2023-04-25T05:57:45;8.50;96.70
9373;DHT22;10838;52.350;9.790;2023-04-25T06:00:13;8.50;96.60
9373;DHT22;10838;52.350;9.790;2023-04-25T06:02:41;8.50;96.50
9373;DHT22;10838;52.350;9.790;2023-04-25T06:05:08;8.50;96.50
9373;DHT22;10838;52.350;9.790;2023-04-25T06:07:35;8.50;96.50
9373;DHT22;10838;52.350;9.790;2023-04-25T06:10:01;8.50;96.40
9373;DHT22;10838;52.350;9.790;2023-04-25T06:12:31;8.50;96.40
9373;DHT22;10838;52.350;9.790;2023-04-25T06:14:59;8.60;96.40
9373;DHT22;10838;52.350;9.790;2023-04-25T06:17:26;8.60;96.40
9373;DHT22;10838;52.350;9.790;2023-04-25T06:19:52;8.60;96.30
9373;DHT22;10838;52.350;9.790;2023-04-25T06:22:19;8.70;96.30
9373;DHT22;10838;52.350;9.790;2023-04-25T06:24:45;8.70;96.30
9373;DHT22;10838;52.350;9.790;2023-04-25T06:27:12;8.70;96.30
9373;DHT22;10838;52.350;9.790;2023-04-25T06:29:38;8.80;96.30
9373;DHT22;10838;52.350;9.790;2023-04-25T06:32:06;8.80;96.30
9373;DHT22;10838;52.350;9.790;2023-04-25T06:34:33;9.00;96.30
9373;DHT22;10838;52.350;9.790;2023-04-25T06:37:00;9.10;96.30
9373;DHT22;10838;52.350;9.790;2023-04-25T06:39:26;9.20;96.30
9373;DHT22;10838;52.350;9.790;2023-04-25T06:41:53;9.30;96.20
9373;DHT22;10838;52.350;9.790;2023-04-25T06:44:19;9.30;96.10
9373;DHT22;10838;52.350;9.790;2023-04-25T06:46:48;9.30;96.20
9373;DHT22;10838;52.350;9.790;2023-04-25T06:49:16;9.40;96.10
9373;DHT22;10838;52.350;9.790;2023-04-25T06:51:42;9.40;96.00
9373;DHT22;10838;52.350;9.790;2023-04-25T06:54:09;9.30;95.90
9373;DHT22;10838;52.350;9.790;2023-04-25T06:56:36;9.40;96.00
9373;DHT22;10838;52.350;9.790;2023-04-25T06:59:02;9.40;95.90
9373;DHT22;10838;52.350;9.790;2023-04-25T07:01:29;9.50;95.80
9373;DHT22;10838;52.350;9.790;2023-04-25T07:03:56;9.60;95.70
9373;DHT22;10838;52.350;9.790;2023-04-25T07:06:24;9.60;95.70
9373;DHT22;10838;52.350;9.790;2023-04-25T07:08:52;9.70;95.70
9373;DHT22;10838;52.350;9.790;2023-04-25T07:11:18;9.70;95.60
9373;DHT22;10838;52.350;9.790;2023-04-25T07:13:45;9.70;95.60
9373;DHT22;10838;52.350;9.790;2023-04-25T07:16:12;9.80;95.70
9373;DHT22;10838;52.350;9.790;2023-04-25T07:18:38;9.70;95.60
9373;DHT22;10838;52.350;9.790;2023-04-25T07:21:05;9.70;95.60
9373;DHT22;10838;52.350;9.790;2023-04-25T07:23:33;9.70;95.50
9373;DHT22;10838;52.350;9.790;2023-04-25T07:25:59;9.60;95.50
9373;DHT22;10838;52.350;9.790;2023-04-25T07:28:26;9.60;95.50
9373;DHT22;10838;52.350;9.790;2023-04-25T07:30:52;9.60;95.50
9373;DHT22;10838;52.350;9.790;2023-04-25T07:33:19;9.60;95.60
9373;DHT22;10838;52.350;9.790;2023-04-25T07:35:46;9.60;95.60
9373;DHT22;10838;52.350;9.790;2023-04-25T07:38:13;9.60;95.50
9373;DHT22;10838;52.350;9.790;2023-04-25T07:40:41;9.50;95.40
9373;DHT22;10838;52.350;9.790;2023-04-25T07:43:07;9.50;95.50
9373;DHT22;10838;52.350;9.790;2023-04-25T07:45:34;9.60;95.50
9373;DHT22;10838;52.350;9.790;2023-04-25T07:48:00;9.60;95.40
9373;DHT22;10838;52.350;9.790;2023-04-25T07:50:28;9.60;95.40
9373;DHT22;10838;52.350;9.790;2023-04-25T07:52:54;9.60;95.30
9373;DHT22;10838;52.350;9.790;2023-04-25T07:55:21;9.60;95.30
9373;DHT22;10838;52.350;9.790;2023-04-25T07:57:49;9.70;95.20
9373;DHT22;10838;52.350;9.790;2023-04-25T08:00:16;9.70;95.20
9373;DHT22;10838;52.350;9.790;2023-04-25T08:02:43;9.70;95.10
9373;DHT22;10838;52.350;9.790;2023-04-25T08:05:09;9.70;95.10
9373;DHT22;10838;52.350;9.790;2023-04-25T08:07:39;9.70;95.10
9373;DHT22;10838;52.350;9.790;2023-04-25T08:10:07;9.80;95.10
9373;DHT22;10838;52.350;9.790;2023-04-25T08:12:34;9.80;95.10
9373;DHT22;10838;52.350;9.790;2023-04-25T08:15:03;9.80;95.10
9373;DHT22;10838;52.350;9.790;2023-04-25T08:17:29;9.90;95.10
9373;DHT22;10838;52.350;9.790;2023-04-25T08:19:56;10.00;94.80
9373;DHT22;10838;52.350;9.790;2023-04-25T08:22:23;10.00;94.80
9373;DHT22;10838;52.350;9.790;2023-04-25T08:24:49;10.10;94.80
9373;DHT22;10838;52.350;9.790;2023-04-25T08:27:17;10.20;94.70
9373;DHT22;10838;52.350;9.790;2023-04-25T08:29:43;10.40;94.70
9373;DHT22;10838;52.350;9.790;2023-04-25T08:32:11;10.70;94.70
9373;DHT22;10838;52.350;9.790;2023-04-25T08:34:38;10.80;94.50
9373;DHT22;10838;52.350;9.790;2023-04-25T08:37:07;11.00;94.50
9373;DHT22;10838;52.350;9.790;2023-04-25T08:39:35;11.10;94.50
9373;DHT22;10838;52.350;9.790;2023-04-25T08:42:02;11.20;94.40
9373;DHT22;10838;52.350;9.790;2023-04-25T08:44:32;11.30;94.10
9373;DHT22;10838;52.350;9.790;2023-04-25T08:46:59;11.40;94.10
9373;DHT22;10838;52.350;9.790;2023-04-25T08:49:28;11.50;94.10
9373;DHT22;10838;52.350;9.790;2023-04-25T08:51:59;11.60;94.00
9373;DHT22;10838;52.350;9.790;2023-04-25T08:54:27;11.70;94.00
9373;DHT22;10838;52.350;9.790;2023-04-25T08:56:55;11.80;93.90
9373;DHT22;10838;52.350;9.790;2023-04-25T08:59:23;11.80;93.60
9373;DHT22;10838;52.350;9.790;2023-04-25T09:01:50;11.80;93.50
9373;DHT22;10838;52.350;9.790;2023-04-25T09:04:17;11.80;93.50
9373;DHT22;10838;52.350;9.790;2023-04-25T09:06:45;11.70;93.50
9373;DHT22;10838;52.350;9.790;2023-04-25T09:09:12;11.60;93.40
9373;DHT22;10838;52.350;9.790;2023-04-25T09:11:39;11.60;93.40
9373;DHT22;10838;52.350;9.790;2023-04-25T09:14:16;11.50;93.40
9373;DHT22;10838;52.350;9.790;2023-04-25T09:17:00;11.40;93.40
9373;DHT22;10838;52.350;9.790;2023-04-25T09:19:28;11.30;93.40
9373;DHT22;10838;52.350;9.790;2023-04-25T09:21:58;11.30;93.30
9373;DHT22;10838;52.350;9.790;2023-04-25T09:24:32;11.30;93.10
9373;DHT22;10838;52.350;9.790;2023-04-25T09:26:59;11.30;93.30
9373;DHT22;10838;52.350;9.790;2023-04-25T09:29:30;11.40;93.30
9373;DHT22;10838;52.350;9.790;2023-04-25T09:32:18;11.50;92.90
9373;DHT22;10838;52.350;9.790;2023-04-25T09:34:47;11.70;92.80
9373;DHT22;10838;52.350;9.790;2023-04-25T09:37:22;11.70;92.60
9373;DHT22;10838;52.350;9.790;2023-04-25T09:39:50;11.90;92.50
9373;DHT22;10838;52.350;9.790;2023-04-25T09:42:17;11.90;92.50
9373;DHT22;10838;52.350;9.790;2023-04-25T09:44:44;12.10;92.50
9373;DHT22;10838;52.350;9.790;2023-04-25T09:47:12;12.20;92.50
9373;DHT22;10838;52.350;9.790;2023-04-25T09:49:40;12.30;92.60
9373;DHT22;10838;52.350;9.790;2023-04-25T09:52:08;12.30;92.60
9373;DHT22;10838;52.350;9.790;2023-04-25T09:54:36;12.40;92.60
9373;DHT22;10838;52.350;9.790;2023-04-25T09:57:10;12.50;92.20
9373;DHT22;10838;52.350;9.790;2023-04-25T09:59:39;12.50;92.10
9373;DHT22;10838;52.350;9.790;2023-04-25T10:02:07;12.40;92.10
9373;DHT22;10838;52.350;9.790;2023-04-25T10:04:35;12.40;92.10
9373;DHT22;10838;52.350;9.790;2023-04-25T10:07:03;12.40;92.00
9373;DHT22;10838;52.350;9.790;2023-04-25T10:09:32;12.50;92.00
9373;DHT22;10838;52.350;9.790;2023-04-25T10:12:01;12.50;91.90
9373;DHT22;10838;52.350;9.790;2023-04-25T10:14:29;12.50;91.90
9373;DHT22;10838;52.350;9.790;2023-04-25T10:16:57;12.50;91.80
9373;DHT22;10838;52.350;9.790;2023-04-25T10:19:24;12.50;91.80
9373;DHT22;10838;52.350;9.790;2023-04-25T10:21:54;12.50;91.90
9373;DHT22;10838;52.350;9.790;2023-04-25T10:24:21;12.40;91.80
9373;DHT22;10838;52.350;9.790;2023-04-25T10:26:49;12.40;91.80
9373;DHT22;10838;52.350;9.790;2023-04-25T10:29:23;12.30;91.80
9373;DHT22;10838;52.350;9.790;2023-04-25T10:31:51;12.20;91.80
9373;DHT22;10838;52.350;9.790;2023-04-25T10:34:18;12.10;91.90
9373;DHT22;10838;52.350;9.790;2023-04-25T10:36:50;12.10;92.00
9373;DHT22;10838;52.350;9.790;2023-04-25T10:39:22;12.10;92.10
9373;DHT22;10838;52.350;9.790;2023-04-25T10:41:53;12.10;92.10
9373;DHT22;10838;52.350;9.790;2023-04-25T10:44:22;12.10;92.10
9373;DHT22;10838;52.350;9.790;2023-04-25T10:46:49;12.10;92.20
9373;DHT22;10838;52.350;9.790;2023-04-25T10:49:29;12.10;92.20
9373;DHT22;10838;52.350;9.790;2023-04-25T10:52:17;12.10;92.30
9373;DHT22;10838;52.350;9.790;2023-04-25T10:54:47;12.10;92.30
9373;DHT22;10838;52.350;9.790;2023-04-25T10:57:37;12.10;92.30
9373;DHT22;10838;52.350;9.790;2023-04-25T11:00:11;12.20;92.30
9373;DHT22;10838;52.350;9.790;2023-04-25T11:02:41;12.20;92.20
9373;DHT22;10838;52.350;9.790;2023-04-25T11:05:08;12.20;92.20
9373;DHT22;10838;52.350;9.790;2023-04-25T11:07:38;12.20;92.20
9373;DHT22;10838;52.350;9.790;2023-04-25T11:10:06;12.20;92.20
9373;DHT22;10838;52.350;9.790;2023-04-25T11:12:33;12.20;92.10
9373;DHT22;10838;52.350;9.790;2023-04-25T11:15:01;12.20;92.10
9373;DHT22;10838;52.350;9.790;2023-04-25T11:17:29;12.20;92.00
9373;DHT22;10838;52.350;9.790;2023-04-25T11:19:56;12.20;92.00
9373;DHT22;10838;52.350;9.790;2023-04-25T11:22:23;12.20;92.10
9373;DHT22;10838;52.350;9.790;2023-04-25T11:24:50;12.20;92.20
9373;DHT22;10838;52.350;9.790;2023-04-25T11:27:16;12.30;92.20
9373;DHT22;10838;52.350;9.790;2023-04-25T11:29:43;12.30;92.20
9373;DHT22;10838;52.350;9.790;2023-04-25T11:32:10;12.30;92.10
9373;DHT22;10838;52.350;9.790;2023-04-25T11:34:38;12.40;92.20
9373;DHT22;10838;52.350;9.790;2023-04-25T11:37:04;12.40;92.20
9373;DHT22;10838;52.350;9.790;2023-04-25T11:39:31;12.40;92.00
9373;DHT22;10838;52.350;9.790;2023-04-25T11:41:58;12.40;92.00
9373;DHT22;10838;52.350;9.790;2023-04-25T11:44:26;12.30;92.00
9373;DHT22;10838;52.350;9.790;2023-04-25T11:46:53;12.20;92.00
9373;DHT22;10838;52.350;9.790;2023-04-25T11:49:19;12.10;92.00
9373;DHT22;10838;52.350;9.790;2023-04-25T11:51:48;12.00;92.10
9373;DHT22;10838;52.350;9.790;2023-04-25T11:54:15;11.90;92.20
9373;DHT22;10838;52.350;9.790;2023-04-25T11:56:42;11.80;92.40
9373;DHT22;10838;52.350;9.790;2023-04-25T11:59:09;11.70;92.60
9373;DHT22;10838;52.350;9.790;2023-04-25T12:01:37;11.60;92.70
9373;DHT22;10838;52.350;9.790;2023-04-25T12:04:11;11.60;92.70
9373;DHT22;10838;52.350;9.790;2023-04-25T12:06:38;11.60;92.70
9373;DHT22;10838;52.350;9.790;2023-04-25T12:09:08;11.60;92.80
9373;DHT22;10838;52.350;9.790;2023-04-25T12:11:40;11.60;92.70
9373;DHT22;10838;52.350;9.790;2023-04-25T12:14:07;11.60;92.70
9373;DHT22;10838;52.350;9.790;2023-04-25T12:16:40;11.70;92.60
9373;DHT22;10838;52.350;9.790;2023-04-25T12:19:07;11.70;92.60
9373;DHT22;10838;52.350;9.790;2023-04-25T12:21:34;11.70;92.70
9373;DHT22;10838;52.350;9.790;2023-04-25T12:24:11;11.80;92.60
9373;DHT22;10838;52.350;9.790;2023-04-25T12:26:52;11.90;92.70
9373;DHT22;10838;52.350;9.790;2023-04-25T12:29:20;12.00;92.70
9373;DHT22;10838;52.350;9.790;2023-04-25T12:31:48;12.10;92.30
9373;DHT22;10838;52.350;9.790;2023-04-25T12:34:14;12.10;92.10
9373;DHT22;10838;52.350;9.790;2023-04-25T12:36:41;12.20;91.90
9373;DHT22;10838;52.350;9.790;2023-04-25T12:39:07;12.30;91.80
9373;DHT22;10838;52.350;9.790;2023-04-25T12:41:36;12.30;91.80
9373;DHT22;10838;52.350;9.790;2023-04-25T12:44:03;12.40;91.60
9373;DHT22;10838;52.350;9.790;2023-04-25T12:46:30;12.30;91.60
9373;DHT22;10838;52.350;9.790;2023-04-25T12:48:56;12.30;91.70
9373;DHT22;10838;52.350;9.790;2023-04-25T12:51:23;12.20;91.80
9373;DHT22;10838;52.350;9.790;2023-04-25T12:53:50;12.10;91.90
9373;DHT22;10838;52.350;9.790;2023-04-25T12:56:17;12.00;91.90
9373;DHT22;10838;52.350;9.790;2023-04-25T12:58:46;12.00;91.80
9373;DHT22;10838;52.350;9.790;2023-04-25T13:01:13;11.90;91.70
9373;DHT22;10838;52.350;9.790;2023-04-25T13:03:40;11.80;91.60
9373;DHT22;10838;52.350;9.790;2023-04-25T13:06:06;11.70;91.50
9373;DHT22;10838;52.350;9.790;2023-04-25T13:08:33;11.70;91.40
9373;DHT22;10838;52.350;9.790;2023-04-25T13:11:00;11.60;91.50
9373;DHT22;10838;52.350;9.790;2023-04-25T13:13:27;11.60;91.50
9373;DHT22;10838;52.350;9.790;2023-04-25T13:15:55;11.50;91.70
9373;DHT22;10838;52.350;9.790;2023-04-25T13:18:22;11.40;91.80
9373;DHT22;10838;52.350;9.790;2023-04-25T13:20:51;11.30;91.80
9373;DHT22;10838;52.350;9.790;2023-04-25T13:23:18;11.20;92.00
9373;DHT22;10838;52.350;9.790;2023-04-25T13:25:45;11.20;92.30
9373;DHT22;10838;52.350;9.790;2023-04-25T13:28:12;11.10;92.50
9373;DHT22;10838;52.350;9.790;2023-04-25T13:30:39;11.00;92.70
9373;DHT22;10838;52.350;9.790;2023-04-25T13:33:07;10.90;92.90
9373;DHT22;10838;52.350;9.790;2023-04-25T13:35:35;10.80;93.00
9373;DHT22;10838;52.350;9.790;2023-04-25T13:38:02;10.80;93.10
9373;DHT22;10838;52.350;9.790;2023-04-25T13:40:28;10.80;93.20
9373;DHT22;10838;52.350;9.790;2023-04-25T13:42:55;10.70;93.30
9373;DHT22;10838;52.350;9.790;2023-04-25T13:45:22;10.70;93.30
9373;DHT22;10838;52.350;9.790;2023-04-25T13:47:48;10.70;93.30
9373;DHT22;10838;52.350;9.790;2023-04-25T13:50:17;10.80;93.40
9373;DHT22;10838;52.350;9.790;2023-04-25T13:52:43;10.90;93.50
9373;DHT22;10838;52.350;9.790;2023-04-25T13:55:10;11.10;93.50
9373;DHT22;10838;52.350;9.790;2023-04-25T13:57:37;11.20;93.50
9373;DHT22;10838;52.350;9.790;2023-04-25T14:00:05;11.30;93.30
9373;DHT22;10838;52.350;9.790;2023-04-25T14:02:34;11.40;93.20
9373;DHT22;10838;52.350;9.790;2023-04-25T14:05:00;11.40;93.10
9373;DHT22;10838;52.350;9.790;2023-04-25T14:07:28;11.40;93.00
9373;DHT22;10838;52.350;9.790;2023-04-25T14:09:55;11.30;93.10
9373;DHT22;10838;52.350;9.790;2023-04-25T14:12:22;11.20;93.20
9373;DHT22;10838;52.350;9.790;2023-04-25T14:14:49;11.00;93.40
9373;DHT22;10838;52.350;9.790;2023-04-25T14:17:16;10.80;93.40
9373;DHT22;10838;52.350;9.790;2023-04-25T14:19:42;10.60;93.60
9373;DHT22;10838;52.350;9.790;2023-04-25T14:22:11;10.50;93.70
9373;DHT22;10838;52.350;9.790;2023-04-25T14:24:39;10.50;93.80
9373;DHT22;10838;52.350;9.790;2023-04-25T14:27:05;10.50;94.00
9373;DHT22;10838;52.350;9.790;2023-04-25T14:29:32;10.50;94.10
9373;DHT22;10838;52.350;9.790;2023-04-25T14:31:58;10.50;94.10
9373;DHT22;10838;52.350;9.790;2023-04-25T14:34:25;10.60;94.10
9373;DHT22;10838;52.350;9.790;2023-04-25T14:36:52;10.60;94.10
9373;DHT22;10838;52.350;9.790;2023-04-25T14:39:19;10.60;94.30
9373;DHT22;10838;52.350;9.790;2023-04-25T14:41:46;10.70;94.50
9373;DHT22;10838;52.350;9.790;2023-04-25T14:44:13;10.70;94.40
9373;DHT22;10838;52.350;9.790;2023-04-25T14:46:40;10.80;94.40
9373;DHT22;10838;52.350;9.790;2023-04-25T14:49:07;10.80;94.30
9373;DHT22;10838;52.350;9.790;2023-04-25T14:51:34;10.80;94.30
9373;DHT22;10838;52.350;9.790;2023-04-25T14:54:00;10.90;94.20
9373;DHT22;10838;52.350;9.790;2023-04-25T14:56:27;10.90;94.20
9373;DHT22;10838;52.350;9.790;2023-04-25T14:58:55;11.00;94.00
9373;DHT22;10838;52.350;9.790;2023-04-25T15:01:22;11.00;94.00
9373;DHT22;10838;52.350;9.790;2023-04-25T15:03:49;11.10;94.00
9373;DHT22;10838;52.350;9.790;2023-04-25T15:06:16;11.10;93.90
9373;DHT22;10838;52.350;9.790;2023-04-25T15:08:43;11.20;93.70
9373;DHT22;10838;52.350;9.790;2023-04-25T15:11:09;11.10;93.60
9373;DHT22;10838;52.350;9.790;2023-04-25T15:13:37;11.00;93.40
9373;DHT22;10838;52.350;9.790;2023-04-25T15:16:05;11.00;93.50
9373;DHT22;10838;52.350;9.790;2023-04-25T15:18:32;10.80;93.70
9373;DHT22;10838;52.350;9.790;2023-04-25T15:20:58;10.70;93.80
9373;DHT22;10838;52.350;9.790;2023-04-25T15:23:25;10.60;94.00
9373;DHT22;10838;52.350;9.790;2023-04-25T15:25:51;10.50;94.10
9373;DHT22;10838;52.350;9.790;2023-04-25T15:28:18;10.40;94.20
9373;DHT22;10838;52.350;9.790;2023-04-25T15:30:46;10.20;94.20
9373;DHT22;10838;52.350;9.790;2023-04-25T15:33:14;10.20;94.20
9373;DHT22;10838;52.350;9.790;2023-04-25T15:35:41;10.10;94.30
9373;DHT22;10838;52.350;9.790;2023-04-25T15:38:07;10.10;94.40
9373;DHT22;10838;52.350;9.790;2023-04-25T15:40:35;10.20;94.40
9373;DHT22;10838;52.350;9.790;2023-04-25T15:43:02;10.30;94.60
9373;DHT22;10838;52.350;9.790;2023-04-25T15:45:29;10.40;94.60
9373;DHT22;10838;52.350;9.790;2023-04-25T15:47:57;10.40;94.60
9373;DHT22;10838;52.350;9.790;2023-04-25T15:50:25;10.50;94.60
9373;DHT22;10838;52.350;9.790;2023-04-25T15:52:52;10.50;94.40
9373;DHT22;10838;52.350;9.790;2023-04-25T15:55:19;10.50;94.30
9373;DHT22;10838;52.350;9.790;2023-04-25T15:57:48;10.50;94.20